sensor_id;sensor_type;location;lat;lon;timestamp;P1;durP1;ratioP1;P2;durP2;ratioP2
52542;SDS011;38449;52.696;6.186;2022-12-18T00:02:06;64.60;;;24.65;;
52542;SDS011;38449;52.696;6.186;2022-12-18T00:04:31;60.47;;;22.45;;
52542;SDS011;38449;52.696;6.186;2022-12-18T00:06:57;62.90;;;23.70;;
52542;SDS011;38449;52.696;6.186;2022-12-18T00:09:23;72.03;;;25.45;;
52542;SDS011;38449;52.696;6.186;2022-12-18T00:11:49;68.13;;;23.83;;
52542;SDS011;38449;52.696;6.186;2022-12-18T00:14:15;64.20;;;23.95;;
52542;SDS011;38449;52.696;6.186;2022-12-18T00:16:42;69.25;;;24.88;;
52542;SDS011;38449;52.696;6.186;2022-12-18T00:19:09;71.45;;;26.15;;
52542;SDS011;38449;52.696;6.186;2022-12-18T00:21:35;61.92;;;24.83;;
52542;SDS011;38449;52.696;6.186;2022-12-18T00:24:01;62.38;;;24.83;;
52542;SDS011;38449;52.696;6.186;2022-12-18T00:26:28;57.80;;;22.23;;
52542;SDS011;38449;52.696;6.186;2022-12-18T00:28:55;58.33;;;22.48;;
52542;SDS011;38449;52.696;6.186;2022-12-18T00:31:27;63.75;;;24.98;;
52542;SDS011;38449;52.696;6.186;2022-12-18T00:33:53;65.38;;;25.17;;
52542;SDS011;38449;52.696;6.186;2022-12-18T00:36:21;61.85;;;25.27;;
52542;SDS011;38449;52.696;6.186;2022-12-18T00:38:49;63.25;;;24.75;;
52542;SDS011;38449;52.696;6.186;2022-12-18T00:41:15;58.20;;;24.60;;
52542;SDS011;38449;52.696;6.186;2022-12-18T00:44:01;65.18;;;25.50;;
52542;SDS011;38449;52.696;6.186;2022-12-18T00:46:27;62.13;;;24.88;;
52542;SDS011;38449;52.696;6.186;2022-12-18T00:48:53;68.00;;;27.33;;
52542;SDS011;38449;52.696;6.186;2022-12-18T00:51:18;58.28;;;25.23;;
52542;SDS011;38449;52.696;6.186;2022-12-18T00:53:44;66.35;;;25.88;;
52542;SDS011;38449;52.696;6.186;2022-12-18T00:56:09;62.15;;;24.17;;
52542;SDS011;38449;52.696;6.186;2022-12-18T00:58:35;56.70;;;24.13;;
52542;SDS011;38449;52.696;6.186;2022-12-18T01:01:00;64.45;;;24.73;;
52542;SDS011;38449;52.696;6.186;2022-12-18T01:03:26;69.05;;;25.80;;
52542;SDS011;38449;52.696;6.186;2022-12-18T01:05:51;66.88;;;24.60;;
52542;SDS011;38449;52.696;6.186;2022-12-18T01:08:17;74.10;;;27.35;;
52542;SDS011;38449;52.696;6.186;2022-12-18T01:10:42;71.05;;;27.20;;
52542;SDS011;38449;52.696;6.186;2022-12-18T01:13:08;64.00;;;26.02;;
52542;SDS011;38449;52.696;6.186;2022-12-18T01:15:33;71.90;;;26.38;;
52542;SDS011;38449;52.696;6.186;2022-12-18T01:17:59;63.40;;;25.98;;
52542;SDS011;38449;52.696;6.186;2022-12-18T01:20:24;75.63;;;27.17;;
52542;SDS011;38449;52.696;6.186;2022-12-18T01:22:50;66.28;;;25.15;;
52542;SDS011;38449;52.696;6.186;2022-12-18T01:25:16;64.88;;;24.85;;
52542;SDS011;38449;52.696;6.186;2022-12-18T01:27:41;64.00;;;25.92;;
52542;SDS011;38449;52.696;6.186;2022-12-18T01:30:07;68.30;;;23.83;;
52542;SDS011;38449;52.696;6.186;2022-12-18T01:32:33;73.32;;;26.30;;
52542;SDS011;38449;52.696;6.186;2022-12-18T01:34:58;75.78;;;27.08;;
52542;SDS011;38449;52.696;6.186;2022-12-18T01:37:24;75.70;;;25.98;;
52542;SDS011;38449;52.696;6.186;2022-12-18T01:39:49;74.10;;;26.63;;
52542;SDS011;38449;52.696;6.186;2022-12-18T01:42:17;65.53;;;24.92;;
52542;SDS011;38449;52.696;6.186;2022-12-18T01:47:39;73.35;;;28.38;;
52542;SDS011;38449;52.696;6.186;2022-12-18T01:52:41;62.97;;;24.70;;
52542;SDS011;38449;52.696;6.186;2022-12-18T01:55:10;58.72;;;23.45;;
52542;SDS011;38449;52.696;6.186;2022-12-18T01:57:37;68.78;;;24.02;;
52542;SDS011;38449;52.696;6.186;2022-12-18T02:00:14;67.43;;;25.40;;
52542;SDS011;38449;52.696;6.186;2022-12-18T02:02:42;61.00;;;26.08;;
52542;SDS011;38449;52.696;6.186;2022-12-18T02:05:10;70.38;;;25.40;;
52542;SDS011;38449;52.696;6.186;2022-12-18T02:07:42;62.05;;;22.13;;
52542;SDS011;38449;52.696;6.186;2022-12-18T02:12:56;53.35;;;22.05;;
52542;SDS011;38449;52.696;6.186;2022-12-18T02:15:59;56.25;;;22.45;;
52542;SDS011;38449;52.696;6.186;2022-12-18T02:18:36;62.70;;;22.17;;
52542;SDS011;38449;52.696;6.186;2022-12-18T02:24:18;58.45;;;23.70;;
52542;SDS011;38449;52.696;6.186;2022-12-18T02:26:53;56.35;;;21.35;;
52542;SDS011;38449;52.696;6.186;2022-12-18T02:29:35;67.43;;;25.38;;
52542;SDS011;38449;52.696;6.186;2022-12-18T02:32:17;64.57;;;24.70;;
52542;SDS011;38449;52.696;6.186;2022-12-18T02:34:46;58.72;;;22.88;;
52542;SDS011;38449;52.696;6.186;2022-12-18T02:37:16;59.45;;;24.58;;
52542;SDS011;38449;52.696;6.186;2022-12-18T02:39:44;59.13;;;21.90;;
52542;SDS011;38449;52.696;6.186;2022-12-18T02:42:13;60.33;;;20.85;;
52542;SDS011;38449;52.696;6.186;2022-12-18T02:44:46;60.53;;;22.52;;
52542;SDS011;38449;52.696;6.186;2022-12-18T02:47:13;61.10;;;23.07;;
52542;SDS011;38449;52.696;6.186;2022-12-18T02:57:34;51.65;;;20.88;;
52542;SDS011;38449;52.696;6.186;2022-12-18T03:05:15;47.13;;;20.20;;
52542;SDS011;38449;52.696;6.186;2022-12-18T03:07:51;50.35;;;19.23;;
52542;SDS011;38449;52.696;6.186;2022-12-18T03:10:27;49.80;;;20.73;;
52542;SDS011;38449;52.696;6.186;2022-12-18T03:13:06;55.00;;;20.90;;
52542;SDS011;38449;52.696;6.186;2022-12-18T03:15:37;48.40;;;20.38;;
52542;SDS011;38449;52.696;6.186;2022-12-18T03:18:11;55.75;;;20.33;;
52542;SDS011;38449;52.696;6.186;2022-12-18T03:20:47;45.75;;;19.13;;
52542;SDS011;38449;52.696;6.186;2022-12-18T03:23:18;54.75;;;20.75;;
52542;SDS011;38449;52.696;6.186;2022-12-18T03:25:47;50.60;;;21.38;;
52542;SDS011;38449;52.696;6.186;2022-12-18T03:28:20;52.85;;;21.40;;
52542;SDS011;38449;52.696;6.186;2022-12-18T03:30:47;52.47;;;20.63;;
52542;SDS011;38449;52.696;6.186;2022-12-18T03:35:46;50.75;;;20.02;;
52542;SDS011;38449;52.696;6.186;2022-12-18T03:38:12;50.40;;;19.67;;
52542;SDS011;38449;52.696;6.186;2022-12-18T03:45:52;51.75;;;19.58;;
52542;SDS011;38449;52.696;6.186;2022-12-18T03:48:28;45.05;;;18.73;;
52542;SDS011;38449;52.696;6.186;2022-12-18T03:50:59;44.78;;;18.30;;
52542;SDS011;38449;52.696;6.186;2022-12-18T03:53:45;47.90;;;20.00;;
52542;SDS011;38449;52.696;6.186;2022-12-18T03:56:16;44.60;;;18.80;;
52542;SDS011;38449;52.696;6.186;2022-12-18T03:58:42;50.63;;;18.10;;
52542;SDS011;38449;52.696;6.186;2022-12-18T04:01:10;43.95;;;18.13;;
52542;SDS011;38449;52.696;6.186;2022-12-18T04:03:39;47.50;;;18.77;;
52542;SDS011;38449;52.696;6.186;2022-12-18T04:06:07;46.28;;;19.00;;
52542;SDS011;38449;52.696;6.186;2022-12-18T04:08:33;44.28;;;18.40;;
52542;SDS011;38449;52.696;6.186;2022-12-18T04:11:00;45.92;;;18.77;;
52542;SDS011;38449;52.696;6.186;2022-12-18T04:13:32;46.35;;;18.48;;
52542;SDS011;38449;52.696;6.186;2022-12-18T04:16:00;48.65;;;18.42;;
52542;SDS011;38449;52.696;6.186;2022-12-18T04:18:26;43.45;;;18.58;;
52542;SDS011;38449;52.696;6.186;2022-12-18T04:20:52;50.88;;;19.08;;
52542;SDS011;38449;52.696;6.186;2022-12-18T04:23:17;41.97;;;17.52;;
52542;SDS011;38449;52.696;6.186;2022-12-18T04:25:43;44.50;;;17.35;;
52542;SDS011;38449;52.696;6.186;2022-12-18T04:28:08;46.40;;;16.95;;
52542;SDS011;38449;52.696;6.186;2022-12-18T04:30:34;42.83;;;17.00;;
52542;SDS011;38449;52.696;6.186;2022-12-18T04:33:00;43.83;;;17.40;;
52542;SDS011;38449;52.696;6.186;2022-12-18T04:35:25;41.15;;;17.58;;
52542;SDS011;38449;52.696;6.186;2022-12-18T04:37:51;43.38;;;17.33;;
52542;SDS011;38449;52.696;6.186;2022-12-18T04:40:16;41.75;;;17.83;;
52542;SDS011;38449;52.696;6.186;2022-12-18T04:42:42;45.60;;;17.42;;
52542;SDS011;38449;52.696;6.186;2022-12-18T04:45:07;44.72;;;17.63;;
52542;SDS011;38449;52.696;6.186;2022-12-18T04:47:33;42.88;;;16.92;;
52542;SDS011;38449;52.696;6.186;2022-12-18T04:49:59;40.75;;;15.60;;
52542;SDS011;38449;52.696;6.186;2022-12-18T04:52:25;41.05;;;17.90;;
52542;SDS011;38449;52.696;6.186;2022-12-18T04:54:50;41.15;;;16.77;;
52542;SDS011;38449;52.696;6.186;2022-12-18T04:57:16;48.00;;;17.08;;
52542;SDS011;38449;52.696;6.186;2022-12-18T04:59:43;43.88;;;17.02;;
52542;SDS011;38449;52.696;6.186;2022-12-18T05:02:09;47.67;;;17.92;;
52542;SDS011;38449;52.696;6.186;2022-12-18T05:04:34;43.58;;;17.38;;
52542;SDS011;38449;52.696;6.186;2022-12-18T05:07:00;40.20;;;16.98;;
52542;SDS011;38449;52.696;6.186;2022-12-18T05:09:26;32.35;;;14.70;;
52542;SDS011;38449;52.696;6.186;2022-12-18T05:11:51;39.67;;;16.90;;
52542;SDS011;38449;52.696;6.186;2022-12-18T05:14:17;40.25;;;17.30;;
52542;SDS011;38449;52.696;6.186;2022-12-18T05:16:42;43.33;;;16.45;;
52542;SDS011;38449;52.696;6.186;2022-12-18T05:19:08;43.88;;;17.10;;
52542;SDS011;38449;52.696;6.186;2022-12-18T05:21:33;37.38;;;16.25;;
52542;SDS011;38449;52.696;6.186;2022-12-18T05:23:59;36.97;;;15.65;;
52542;SDS011;38449;52.696;6.186;2022-12-18T05:26:24;46.10;;;17.08;;
52542;SDS011;38449;52.696;6.186;2022-12-18T05:28:50;37.58;;;15.57;;
52542;SDS011;38449;52.696;6.186;2022-12-18T05:31:16;40.63;;;15.85;;
52542;SDS011;38449;52.696;6.186;2022-12-18T05:33:41;40.63;;;15.70;;
52542;SDS011;38449;52.696;6.186;2022-12-18T05:36:07;35.97;;;14.30;;
52542;SDS011;38449;52.696;6.186;2022-12-18T05:38:34;41.92;;;17.17;;
52542;SDS011;38449;52.696;6.186;2022-12-18T05:41:01;36.95;;;15.20;;
52542;SDS011;38449;52.696;6.186;2022-12-18T05:43:27;43.63;;;15.50;;
52542;SDS011;38449;52.696;6.186;2022-12-18T05:45:53;35.63;;;15.32;;
52542;SDS011;38449;52.696;6.186;2022-12-18T05:48:20;40.75;;;14.82;;
52542;SDS011;38449;52.696;6.186;2022-12-18T05:50:46;35.90;;;14.18;;
52542;SDS011;38449;52.696;6.186;2022-12-18T05:53:14;37.05;;;15.18;;
52542;SDS011;38449;52.696;6.186;2022-12-18T05:55:41;40.67;;;15.70;;
52542;SDS011;38449;52.696;6.186;2022-12-18T05:58:08;38.20;;;15.30;;
52542;SDS011;38449;52.696;6.186;2022-12-18T06:00:36;35.97;;;15.60;;
52542;SDS011;38449;52.696;6.186;2022-12-18T06:03:07;34.75;;;15.07;;
52542;SDS011;38449;52.696;6.186;2022-12-18T06:05:41;33.63;;;15.10;;
52542;SDS011;38449;52.696;6.186;2022-12-18T06:08:08;34.60;;;15.10;;
52542;SDS011;38449;52.696;6.186;2022-12-18T06:10:34;36.13;;;14.15;;
52542;SDS011;38449;52.696;6.186;2022-12-18T06:13:00;41.00;;;15.98;;
52542;SDS011;38449;52.696;6.186;2022-12-18T06:15:26;39.38;;;15.75;;
52542;SDS011;38449;52.696;6.186;2022-12-18T06:17:51;34.60;;;15.57;;
52542;SDS011;38449;52.696;6.186;2022-12-18T06:20:17;38.05;;;15.50;;
52542;SDS011;38449;52.696;6.186;2022-12-18T06:22:43;39.25;;;15.65;;
52542;SDS011;38449;52.696;6.186;2022-12-18T06:25:09;45.88;;;16.13;;
52542;SDS011;38449;52.696;6.186;2022-12-18T06:27:35;41.30;;;14.70;;
52542;SDS011;38449;52.696;6.186;2022-12-18T06:30:00;41.63;;;15.35;;
52542;SDS011;38449;52.696;6.186;2022-12-18T06:32:26;35.33;;;14.05;;
52542;SDS011;38449;52.696;6.186;2022-12-18T06:34:52;40.28;;;14.75;;
52542;SDS011;38449;52.696;6.186;2022-12-18T06:37:18;36.90;;;14.80;;
52542;SDS011;38449;52.696;6.186;2022-12-18T06:39:44;41.80;;;17.05;;
52542;SDS011;38449;52.696;6.186;2022-12-18T06:42:10;42.90;;;16.23;;
52542;SDS011;38449;52.696;6.186;2022-12-18T06:44:36;35.53;;;14.55;;
52542;SDS011;38449;52.696;6.186;2022-12-18T06:47:01;37.72;;;15.35;;
52542;SDS011;38449;52.696;6.186;2022-12-18T06:49:27;39.75;;;15.18;;
52542;SDS011;38449;52.696;6.186;2022-12-18T06:51:52;34.35;;;14.48;;
52542;SDS011;38449;52.696;6.186;2022-12-18T06:54:18;45.22;;;16.83;;
52542;SDS011;38449;52.696;6.186;2022-12-18T06:56:45;37.60;;;15.50;;
52542;SDS011;38449;52.696;6.186;2022-12-18T06:59:11;34.58;;;14.88;;
52542;SDS011;38449;52.696;6.186;2022-12-18T07:01:37;32.47;;;15.23;;
52542;SDS011;38449;52.696;6.186;2022-12-18T07:04:03;36.85;;;15.15;;
52542;SDS011;38449;52.696;6.186;2022-12-18T07:06:28;36.67;;;13.38;;
52542;SDS011;38449;52.696;6.186;2022-12-18T07:08:54;33.42;;;14.38;;
52542;SDS011;38449;52.696;6.186;2022-12-18T07:11:20;37.45;;;15.07;;
52542;SDS011;38449;52.696;6.186;2022-12-18T07:13:46;31.42;;;14.05;;
52542;SDS011;38449;52.696;6.186;2022-12-18T07:16:16;39.42;;;14.60;;
52542;SDS011;38449;52.696;6.186;2022-12-18T07:18:43;32.10;;;13.95;;
52542;SDS011;38449;52.696;6.186;2022-12-18T07:21:15;34.28;;;14.57;;
52542;SDS011;38449;52.696;6.186;2022-12-18T07:23:42;35.65;;;14.40;;
52542;SDS011;38449;52.696;6.186;2022-12-18T07:26:11;37.63;;;13.73;;
52542;SDS011;38449;52.696;6.186;2022-12-18T07:28:39;35.83;;;13.90;;
52542;SDS011;38449;52.696;6.186;2022-12-18T07:31:06;26.65;;;12.88;;
52542;SDS011;38449;52.696;6.186;2022-12-18T07:33:36;30.83;;;13.38;;
52542;SDS011;38449;52.696;6.186;2022-12-18T07:36:03;30.42;;;12.73;;
52542;SDS011;38449;52.696;6.186;2022-12-18T07:38:31;26.98;;;12.05;;
52542;SDS011;38449;52.696;6.186;2022-12-18T07:41:00;33.20;;;13.73;;
52542;SDS011;38449;52.696;6.186;2022-12-18T07:43:44;31.73;;;13.45;;
52542;SDS011;38449;52.696;6.186;2022-12-18T07:46:10;29.90;;;13.60;;
52542;SDS011;38449;52.696;6.186;2022-12-18T07:48:38;30.80;;;13.88;;
52542;SDS011;38449;52.696;6.186;2022-12-18T07:51:05;35.25;;;13.93;;
52542;SDS011;38449;52.696;6.186;2022-12-18T07:53:32;32.60;;;14.52;;
52542;SDS011;38449;52.696;6.186;2022-12-18T07:56:00;30.38;;;14.48;;
52542;SDS011;38449;52.696;6.186;2022-12-18T07:58:28;32.83;;;15.73;;
52542;SDS011;38449;52.696;6.186;2022-12-18T08:00:54;32.40;;;14.07;;
52542;SDS011;38449;52.696;6.186;2022-12-18T08:03:26;31.40;;;12.40;;
52542;SDS011;38449;52.696;6.186;2022-12-18T08:05:52;27.83;;;13.57;;
52542;SDS011;38449;52.696;6.186;2022-12-18T08:08:17;28.20;;;12.57;;
52542;SDS011;38449;52.696;6.186;2022-12-18T08:10:43;32.63;;;13.68;;
52542;SDS011;38449;52.696;6.186;2022-12-18T08:13:08;24.15;;;11.57;;
52542;SDS011;38449;52.696;6.186;2022-12-18T08:15:34;30.27;;;13.10;;
52542;SDS011;38449;52.696;6.186;2022-12-18T08:17:59;32.65;;;14.60;;
52542;SDS011;38449;52.696;6.186;2022-12-18T08:20:25;29.85;;;11.80;;
52542;SDS011;38449;52.696;6.186;2022-12-18T08:22:50;29.08;;;13.77;;
52542;SDS011;38449;52.696;6.186;2022-12-18T08:25:16;27.88;;;13.13;;
52542;SDS011;38449;52.696;6.186;2022-12-18T08:27:42;31.92;;;13.40;;
52542;SDS011;38449;52.696;6.186;2022-12-18T08:30:07;23.85;;;12.02;;
52542;SDS011;38449;52.696;6.186;2022-12-18T08:32:34;31.83;;;11.65;;
52542;SDS011;38449;52.696;6.186;2022-12-18T08:34:59;30.95;;;11.63;;
52542;SDS011;38449;52.696;6.186;2022-12-18T08:37:25;29.88;;;12.85;;
52542;SDS011;38449;52.696;6.186;2022-12-18T08:39:51;28.15;;;13.02;;
52542;SDS011;38449;52.696;6.186;2022-12-18T08:42:16;28.17;;;12.98;;
52542;SDS011;38449;52.696;6.186;2022-12-18T08:45:01;32.60;;;14.35;;
52542;SDS011;38449;52.696;6.186;2022-12-18T08:47:27;27.58;;;13.18;;
52542;SDS011;38449;52.696;6.186;2022-12-18T08:49:52;25.58;;;12.55;;
52542;SDS011;38449;52.696;6.186;2022-12-18T08:52:18;27.60;;;12.38;;
52542;SDS011;38449;52.696;6.186;2022-12-18T08:54:43;28.23;;;13.07;;
52542;SDS011;38449;52.696;6.186;2022-12-18T08:57:09;26.77;;;13.02;;
52542;SDS011;38449;52.696;6.186;2022-12-18T08:59:34;22.05;;;10.18;;
52542;SDS011;38449;52.696;6.186;2022-12-18T09:02:00;24.45;;;11.15;;
52542;SDS011;38449;52.696;6.186;2022-12-18T09:04:26;23.40;;;12.07;;
52542;SDS011;38449;52.696;6.186;2022-12-18T09:06:51;23.27;;;11.02;;
52542;SDS011;38449;52.696;6.186;2022-12-18T09:09:20;21.60;;;11.05;;
52542;SDS011;38449;52.696;6.186;2022-12-18T09:11:46;22.60;;;11.60;;
52542;SDS011;38449;52.696;6.186;2022-12-18T09:14:11;23.42;;;11.07;;
52542;SDS011;38449;52.696;6.186;2022-12-18T09:16:37;24.02;;;10.57;;
52542;SDS011;38449;52.696;6.186;2022-12-18T09:19:03;25.70;;;12.88;;
52542;SDS011;38449;52.696;6.186;2022-12-18T09:21:30;21.65;;;10.80;;
52542;SDS011;38449;52.696;6.186;2022-12-18T09:23:57;21.33;;;10.68;;
52542;SDS011;38449;52.696;6.186;2022-12-18T09:26:24;20.15;;;10.07;;
52542;SDS011;38449;52.696;6.186;2022-12-18T09:28:51;20.30;;;10.82;;
52542;SDS011;38449;52.696;6.186;2022-12-18T09:31:17;19.67;;;10.25;;
52542;SDS011;38449;52.696;6.186;2022-12-18T09:33:45;20.02;;;9.80;;
52542;SDS011;38449;52.696;6.186;2022-12-18T09:36:12;18.40;;;9.35;;
52542;SDS011;38449;52.696;6.186;2022-12-18T09:38:40;18.48;;;10.07;;
52542;SDS011;38449;52.696;6.186;2022-12-18T09:41:15;17.05;;;8.93;;
52542;SDS011;38449;52.696;6.186;2022-12-18T09:43:57;18.02;;;9.77;;
52542;SDS011;38449;52.696;6.186;2022-12-18T09:46:47;17.08;;;8.57;;
52542;SDS011;38449;52.696;6.186;2022-12-18T09:49:28;18.17;;;9.73;;
52542;SDS011;38449;52.696;6.186;2022-12-18T09:54:46;19.35;;;9.45;;
52542;SDS011;38449;52.696;6.186;2022-12-18T09:57:18;24.40;;;10.32;;
52542;SDS011;38449;52.696;6.186;2022-12-18T09:59:48;19.55;;;9.43;;
52542;SDS011;38449;52.696;6.186;2022-12-18T10:02:20;19.42;;;9.07;;
52542;SDS011;38449;52.696;6.186;2022-12-18T10:16:07;14.75;;;7.28;;
52542;SDS011;38449;52.696;6.186;2022-12-18T10:21:21;14.15;;;7.88;;
52542;SDS011;38449;52.696;6.186;2022-12-18T10:24:03;15.55;;;8.35;;
52542;SDS011;38449;52.696;6.186;2022-12-18T10:26:40;13.38;;;6.75;;
52542;SDS011;38449;52.696;6.186;2022-12-18T10:29:10;14.32;;;7.32;;
52542;SDS011;38449;52.696;6.186;2022-12-18T10:31:37;16.65;;;7.65;;
52542;SDS011;38449;52.696;6.186;2022-12-18T10:34:03;15.77;;;8.02;;
52542;SDS011;38449;52.696;6.186;2022-12-18T10:36:29;13.70;;;7.10;;
52542;SDS011;38449;52.696;6.186;2022-12-18T10:39:14;17.77;;;8.65;;
52542;SDS011;38449;52.696;6.186;2022-12-18T10:41:41;15.48;;;7.15;;
52542;SDS011;38449;52.696;6.186;2022-12-18T10:44:23;16.83;;;8.70;;
52542;SDS011;38449;52.696;6.186;2022-12-18T10:46:50;13.50;;;7.13;;
52542;SDS011;38449;52.696;6.186;2022-12-18T10:49:28;13.55;;;7.25;;
52542;SDS011;38449;52.696;6.186;2022-12-18T10:54:51;14.32;;;7.38;;
52542;SDS011;38449;52.696;6.186;2022-12-18T10:59:54;14.13;;;8.02;;
52542;SDS011;38449;52.696;6.186;2022-12-18T11:02:25;15.57;;;7.53;;
52542;SDS011;38449;52.696;6.186;2022-12-18T11:05:08;14.77;;;7.63;;
52542;SDS011;38449;52.696;6.186;2022-12-18T11:07:55;14.18;;;7.35;;
52542;SDS011;38449;52.696;6.186;2022-12-18T11:10:23;17.00;;;8.15;;
52542;SDS011;38449;52.696;6.186;2022-12-18T11:12:57;13.02;;;7.03;;
52542;SDS011;38449;52.696;6.186;2022-12-18T11:15:54;12.40;;;6.78;;
52542;SDS011;38449;52.696;6.186;2022-12-18T11:18:28;11.68;;;6.50;;
52542;SDS011;38449;52.696;6.186;2022-12-18T11:23:32;13.40;;;6.78;;
52542;SDS011;38449;52.696;6.186;2022-12-18T11:25:59;14.40;;;6.88;;
52542;SDS011;38449;52.696;6.186;2022-12-18T11:28:44;11.85;;;7.30;;
52542;SDS011;38449;52.696;6.186;2022-12-18T11:31:32;12.05;;;6.68;;
52542;SDS011;38449;52.696;6.186;2022-12-18T11:34:06;13.27;;;7.22;;
52542;SDS011;38449;52.696;6.186;2022-12-18T11:36:44;13.98;;;7.05;;
52542;SDS011;38449;52.696;6.186;2022-12-18T11:39:13;13.85;;;7.65;;
52542;SDS011;38449;52.696;6.186;2022-12-18T11:41:41;13.73;;;7.43;;
52542;SDS011;38449;52.696;6.186;2022-12-18T11:44:43;14.90;;;8.05;;
52542;SDS011;38449;52.696;6.186;2022-12-18T11:50:18;17.55;;;8.00;;
52542;SDS011;38449;52.696;6.186;2022-12-18T11:52:47;15.85;;;8.27;;
52542;SDS011;38449;52.696;6.186;2022-12-18T11:55:19;16.13;;;8.02;;
52542;SDS011;38449;52.696;6.186;2022-12-18T11:58:20;13.70;;;7.40;;
52542;SDS011;38449;52.696;6.186;2022-12-18T12:04:09;12.93;;;6.78;;
52542;SDS011;38449;52.696;6.186;2022-12-18T12:09:55;13.37;;;6.50;;
52542;SDS011;38449;52.696;6.186;2022-12-18T12:12:39;11.40;;;6.53;;
52542;SDS011;38449;52.696;6.186;2022-12-18T12:20:53;11.35;;;6.47;;
52542;SDS011;38449;52.696;6.186;2022-12-18T12:26:52;11.57;;;6.22;;
52542;SDS011;38449;52.696;6.186;2022-12-18T12:32:22;14.20;;;6.55;;
52542;SDS011;38449;52.696;6.186;2022-12-18T12:40:32;12.88;;;6.63;;
52542;SDS011;38449;52.696;6.186;2022-12-18T12:43:05;12.15;;;6.25;;
52542;SDS011;38449;52.696;6.186;2022-12-18T12:51:49;13.10;;;6.82;;
52542;SDS011;38449;52.696;6.186;2022-12-18T12:53:57;10.27;;;6.47;;
52542;SDS011;38449;52.696;6.186;2022-12-18T12:56:24;11.57;;;5.85;;
52542;SDS011;38449;52.696;6.186;2022-12-18T13:01:52;10.40;;;5.90;;
52542;SDS011;38449;52.696;6.186;2022-12-18T13:04:27;14.05;;;5.72;;
52542;SDS011;38449;52.696;6.186;2022-12-18T13:10:13;10.00;;;5.55;;
52542;SDS011;38449;52.696;6.186;2022-12-18T13:15:28;9.48;;;5.32;;
52542;SDS011;38449;52.696;6.186;2022-12-18T13:31:02;12.00;;;5.90;;
52542;SDS011;38449;52.696;6.186;2022-12-18T13:40:57;13.75;;;7.28;;
52542;SDS011;38449;52.696;6.186;2022-12-18T13:43:28;8.25;;;5.35;;
52542;SDS011;38449;52.696;6.186;2022-12-18T13:48:41;10.07;;;5.43;;
52542;SDS011;38449;52.696;6.186;2022-12-18T13:51:16;10.15;;;5.13;;
52542;SDS011;38449;52.696;6.186;2022-12-18T13:56:15;9.85;;;5.10;;
52542;SDS011;38449;52.696;6.186;2022-12-18T13:58:42;9.88;;;5.25;;
52542;SDS011;38449;52.696;6.186;2022-12-18T14:01:21;10.88;;;5.88;;
52542;SDS011;38449;52.696;6.186;2022-12-18T14:03:47;9.20;;;5.35;;
52542;SDS011;38449;52.696;6.186;2022-12-18T14:06:13;10.80;;;5.78;;
52542;SDS011;38449;52.696;6.186;2022-12-18T14:08:40;10.07;;;5.65;;
52542;SDS011;38449;52.696;6.186;2022-12-18T14:11:07;11.40;;;5.72;;
52542;SDS011;38449;52.696;6.186;2022-12-18T14:13:44;10.43;;;5.95;;
52542;SDS011;38449;52.696;6.186;2022-12-18T14:16:12;10.05;;;5.35;;
52542;SDS011;38449;52.696;6.186;2022-12-18T14:18:48;8.55;;;5.32;;
52542;SDS011;38449;52.696;6.186;2022-12-18T14:24:02;9.63;;;5.20;;
52542;SDS011;38449;52.696;6.186;2022-12-18T14:26:38;9.18;;;5.75;;
52542;SDS011;38449;52.696;6.186;2022-12-18T14:29:21;11.02;;;6.07;;
52542;SDS011;38449;52.696;6.186;2022-12-18T14:32:08;9.93;;;5.40;;
52542;SDS011;38449;52.696;6.186;2022-12-18T14:34:39;9.93;;;5.47;;
52542;SDS011;38449;52.696;6.186;2022-12-18T14:37:05;12.05;;;5.80;;
52542;SDS011;38449;52.696;6.186;2022-12-18T14:39:38;9.52;;;5.38;;
52542;SDS011;38449;52.696;6.186;2022-12-18T14:42:03;11.18;;;6.03;;
52542;SDS011;38449;52.696;6.186;2022-12-18T14:44:29;12.52;;;6.32;;
52542;SDS011;38449;52.696;6.186;2022-12-18T14:46:55;15.63;;;8.00;;
52542;SDS011;38449;52.696;6.186;2022-12-18T14:49:23;13.88;;;7.85;;
52542;SDS011;38449;52.696;6.186;2022-12-18T14:51:54;12.27;;;6.60;;
52542;SDS011;38449;52.696;6.186;2022-12-18T14:54:22;11.68;;;7.07;;
52542;SDS011;38449;52.696;6.186;2022-12-18T14:56:50;14.63;;;6.18;;
52542;SDS011;38449;52.696;6.186;2022-12-18T14:59:30;9.25;;;5.82;;
52542;SDS011;38449;52.696;6.186;2022-12-18T15:04:43;9.95;;;5.28;;
52542;SDS011;38449;52.696;6.186;2022-12-18T15:07:13;9.20;;;6.00;;
52542;SDS011;38449;52.696;6.186;2022-12-18T15:09:42;11.35;;;5.60;;
52542;SDS011;38449;52.696;6.186;2022-12-18T15:12:39;11.77;;;6.45;;
52542;SDS011;38449;52.696;6.186;2022-12-18T15:17:59;11.38;;;6.43;;
52542;SDS011;38449;52.696;6.186;2022-12-18T15:20:25;11.95;;;6.25;;
52542;SDS011;38449;52.696;6.186;2022-12-18T15:22:51;12.57;;;6.18;;
52542;SDS011;38449;52.696;6.186;2022-12-18T15:25:24;10.40;;;6.07;;
52542;SDS011;38449;52.696;6.186;2022-12-18T15:28:01;11.43;;;5.90;;
52542;SDS011;38449;52.696;6.186;2022-12-18T15:30:27;10.50;;;5.60;;
52542;SDS011;38449;52.696;6.186;2022-12-18T15:33:15;10.50;;;5.75;;
52542;SDS011;38449;52.696;6.186;2022-12-18T15:35:47;10.00;;;6.07;;
52542;SDS011;38449;52.696;6.186;2022-12-18T15:38:21;10.60;;;5.57;;
52542;SDS011;38449;52.696;6.186;2022-12-18T15:40:47;9.38;;;5.38;;
52542;SDS011;38449;52.696;6.186;2022-12-18T15:43:12;11.68;;;6.18;;
52542;SDS011;38449;52.696;6.186;2022-12-18T15:45:56;11.30;;;6.27;;
52542;SDS011;38449;52.696;6.186;2022-12-18T15:48:22;10.65;;;5.82;;
52542;SDS011;38449;52.696;6.186;2022-12-18T15:50:49;9.93;;;5.25;;
52542;SDS011;38449;52.696;6.186;2022-12-18T15:53:17;9.80;;;5.47;;
52542;SDS011;38449;52.696;6.186;2022-12-18T15:55:43;10.55;;;5.88;;
52542;SDS011;38449;52.696;6.186;2022-12-18T15:58:27;9.93;;;6.05;;
52542;SDS011;38449;52.696;6.186;2022-12-18T16:00:53;10.60;;;5.53;;
52542;SDS011;38449;52.696;6.186;2022-12-18T16:03:20;12.48;;;6.32;;
52542;SDS011;38449;52.696;6.186;2022-12-18T16:05:46;8.43;;;5.38;;
52542;SDS011;38449;52.696;6.186;2022-12-18T16:08:12;9.82;;;5.80;;
52542;SDS011;38449;52.696;6.186;2022-12-18T16:10:37;12.27;;;6.00;;
52542;SDS011;38449;52.696;6.186;2022-12-18T16:13:03;12.20;;;5.95;;
52542;SDS011;38449;52.696;6.186;2022-12-18T16:15:29;11.80;;;6.88;;
52542;SDS011;38449;52.696;6.186;2022-12-18T16:17:54;10.48;;;5.85;;
52542;SDS011;38449;52.696;6.186;2022-12-18T16:20:21;13.07;;;6.80;;
52542;SDS011;38449;52.696;6.186;2022-12-18T16:22:47;8.98;;;5.55;;
52542;SDS011;38449;52.696;6.186;2022-12-18T16:25:19;13.40;;;6.65;;
52542;SDS011;38449;52.696;6.186;2022-12-18T16:27:51;11.10;;;6.63;;
52542;SDS011;38449;52.696;6.186;2022-12-18T16:30:21;9.77;;;6.13;;
52542;SDS011;38449;52.696;6.186;2022-12-18T16:32:53;12.90;;;7.05;;
52542;SDS011;38449;52.696;6.186;2022-12-18T16:35:19;14.27;;;8.52;;
52542;SDS011;38449;52.696;6.186;2022-12-18T16:37:45;12.15;;;6.72;;
52542;SDS011;38449;52.696;6.186;2022-12-18T16:40:12;10.85;;;6.63;;
52542;SDS011;38449;52.696;6.186;2022-12-18T16:42:40;10.93;;;6.53;;
52542;SDS011;38449;52.696;6.186;2022-12-18T16:45:08;14.77;;;6.20;;
52542;SDS011;38449;52.696;6.186;2022-12-18T16:47:36;11.77;;;7.18;;
52542;SDS011;38449;52.696;6.186;2022-12-18T16:50:02;13.85;;;7.40;;
52542;SDS011;38449;52.696;6.186;2022-12-18T16:52:28;11.98;;;6.72;;
52542;SDS011;38449;52.696;6.186;2022-12-18T16:54:55;12.38;;;6.63;;